Time;durP1;ratioP1;P1;durP2;ratioP2;P2;SDS_P1;SDS_P2;PMS_P1;PMS_P2;Temp;Humidity;BMP_temperature;BMP_pressure;BME280_temperature;BME280_humidity;BME280_pressure;Samples;Min_cycle;Max_cycle;Signal;HPM_P1;HPM_P2
2022/10/28 00:02:20;;;;;;;38.30;21.80;;;7.80;99.90;;;;;;4415914;28;656690;-72
2022/10/28 00:05:08;;;;;;;45.33;21.07;;;7.80;99.90;;;;;;4428243;28;657983;-72
2022/10/28 00:07:55;;;;;;;44.03;22.00;;;7.80;99.90;;;;;;4405334;28;656590;-71
2022/10/28 00:10:42;;;;;;;293.23;46.22;;;7.70;99.90;;;;;;4427586;28;656697;-71
2022/10/28 00:13:31;;;;;;;419.07;55.20;;;7.70;99.90;;;;;;4424077;28;656342;-72
2022/10/28 00:16:19;;;;;;;184.97;42.10;;;7.70;99.90;;;;;;4404227;28;658200;-73
2022/10/28 00:19:07;;;;;;;97.83;29.37;;;7.70;99.90;;;;;;4406045;28;658244;-72
2022/10/28 00:21:54;;;;;;;159.63;32.83;;;7.70;99.90;;;;;;4430962;28;657239;-73
2022/10/28 00:24:42;;;;;;;86.70;28.63;;;7.70;99.90;;;;;;4409829;28;658378;-72
2022/10/28 00:27:30;;;;;;;85.43;27.50;;;7.70;99.90;;;;;;4428930;28;656648;-73
2022/10/28 00:30:19;;;;;;;59.83;25.50;;;7.70;99.90;;;;;;4410502;28;657884;-73
2022/10/28 00:33:06;;;;;;;52.17;24.13;;;7.70;99.90;;;;;;4410525;28;656327;-72
2022/10/28 00:35:53;;;;;;;58.37;23.37;;;7.70;99.90;;;;;;4419968;28;657967;-72
2022/10/28 00:38:41;;;;;;;73.77;27.03;;;7.70;99.90;;;;;;4412988;28;657224;-72
2022/10/28 00:41:29;;;;;;;466.37;63.43;;;7.70;99.90;;;;;;4431342;28;657574;-73
2022/10/28 00:44:40;;;;;;;780.23;113.00;;;7.60;99.90;;;;;;4404516;28;657628;-73
2022/10/28 00:47:39;;;;;;;395.80;56.43;;;7.60;99.90;;;;;;4379459;28;659460;-73
2022/10/28 00:50:37;;;;;;;512.57;46.57;;;7.60;99.90;;;;;;4382979;28;658378;-71
2022/10/28 00:53:25;;;;;;;284.00;48.50;;;7.60;99.90;;;;;;4402879;28;657881;-72
2022/10/28 00:56:12;;;;;;;178.83;43.27;;;7.50;99.90;;;;;;4405872;28;658139;-73
2022/10/28 00:59:00;;;;;;;124.23;36.40;;;7.50;99.90;;;;;;4427340;28;657297;-73
2022/10/28 01:01:47;;;;;;;182.90;41.50;;;7.50;99.90;;;;;;4407576;28;658373;-73
2022/10/28 01:04:36;;;;;;;142.93;35.23;;;7.50;99.90;;;;;;4428587;28;657998;-73
2022/10/28 01:07:23;;;;;;;194.07;38.43;;;7.50;99.90;;;;;;4403795;28;658392;-73
2022/10/28 01:10:10;;;;;;;126.53;32.43;;;7.50;99.90;;;;;;4406834;28;657792;-73
2022/10/28 01:13:02;;;;;;;102.10;31.40;;;7.50;99.90;;;;;;4435637;28;658190;-73
2022/10/28 01:15:52;;;;;;;97.80;27.90;;;7.60;99.90;;;;;;4403849;28;657772;-73
2022/10/28 01:18:42;;;;;;;89.23;28.57;;;7.60;99.90;;;;;;4403491;28;657153;-73
2022/10/28 01:21:57;;;;;;;140.02;24.17;;;7.60;99.90;;;;;;4403940;28;656623;-72
2022/10/28 01:25:08;;;;;;;83.83;26.97;;;7.70;99.90;;;;;;4406054;28;658361;-73
2022/10/28 01:28:12;;;;;;;269.80;46.13;;;7.60;99.90;;;;;;4393951;28;656876;-72
2022/10/28 01:31:13;;;;;;;839.40;113.03;;;7.60;99.90;;;;;;4395982;28;657500;-73
2022/10/28 01:34:06;;;;;;;195.30;39.77;;;7.60;99.90;;;;;;4382345;28;658965;-72
2022/10/28 01:36:56;;;;;;;73.90;24.50;;;7.50;99.90;;;;;;4406234;28;657528;-73
2022/10/28 01:39:45;;;;;;;69.90;27.57;;;7.50;99.90;;;;;;4412749;28;658635;-73
2022/10/28 01:42:34;;;;;;;133.88;35.70;;;7.50;99.90;;;;;;4406956;28;657836;-72
2022/10/28 01:45:24;;;;;;;187.13;41.63;;;7.50;99.90;;;;;;4407902;28;657803;-73
2022/10/28 01:48:14;;;;;;;147.93;37.10;;;7.50;99.90;;;;;;4411284;28;658324;-73
2022/10/28 01:51:03;;;;;;;68.83;27.53;;;7.40;99.90;;;;;;4403595;28;657442;-73
2022/10/28 01:53:51;;;;;;;398.53;43.57;;;7.50;99.90;;;;;;4401833;28;656523;-71
2022/10/28 01:56:40;;;;;;;131.33;36.17;;;7.50;99.90;;;;;;4424091;28;657855;-73
2022/10/28 01:59:28;;;;;;;130.27;34.33;;;7.60;99.90;;;;;;4400481;28;658745;-73
2022/10/28 02:02:15;;;;;;;414.43;59.83;;;7.50;99.90;;;;;;4410429;28;657962;-72
2022/10/28 02:05:07;;;;;;;339.47;64.13;;;7.50;99.90;;;;;;4422588;28;658607;-73
2022/10/28 02:07:55;;;;;;;373.67;56.87;;;7.40;99.90;;;;;;4405384;28;657451;-73
2022/10/28 02:10:46;;;;;;;158.47;45.80;;;7.40;99.90;;;;;;4401904;28;657675;-73
2022/10/28 02:13:38;;;;;;;123.00;37.03;;;7.40;99.90;;;;;;4405133;28;657849;-71
2022/10/28 02:16:28;;;;;;;124.70;30.87;;;7.40;99.90;;;;;;4379538;28;658000;-71
2022/10/28 02:19:19;;;;;;;65.77;28.93;;;7.40;99.90;;;;;;4402143;28;657783;-72
2022/10/28 02:22:13;;;;;;;76.90;31.17;;;7.40;99.90;;;;;;4403558;28;657431;-73
2022/10/28 02:25:04;;;;;;;436.77;33.00;;;7.40;99.90;;;;;;4374058;28;656757;-73
2022/10/28 02:27:54;;;;;;;164.07;26.35;;;7.40;99.90;;;;;;4406077;28;657922;-73
2022/10/28 02:30:44;;;;;;;57.40;23.33;;;7.30;99.90;;;;;;4404870;28;657855;-73
2022/10/28 02:33:33;;;;;;;57.87;23.73;;;7.20;99.90;;;;;;4410083;28;656441;-73
2022/10/28 02:36:21;;;;;;;56.55;23.45;;;7.30;99.90;;;;;;4406428;28;656699;-72
2022/10/28 02:39:09;;;;;;;85.70;26.37;;;7.30;99.90;;;;;;4430688;28;657424;-73
2022/10/28 02:41:58;;;;;;;90.53;33.77;;;7.30;99.90;;;;;;4410133;28;656651;-72
2022/10/28 02:44:48;;;;;;;66.20;28.47;;;7.30;99.90;;;;;;4411493;28;658284;-72
2022/10/28 02:47:36;;;;;;;61.67;23.53;;;7.20;99.90;;;;;;4412232;28;656619;-72
2022/10/28 02:50:26;;;;;;;158.13;29.90;;;7.20;99.90;;;;;;4424827;28;658419;-71
2022/10/28 02:53:17;;;;;;;59.53;25.03;;;7.20;99.90;;;;;;4398541;28;658244;-74
2022/10/28 02:56:07;;;;;;;124.90;32.10;;;7.20;99.90;;;;;;4392093;28;657644;-72
2022/10/28 02:58:54;;;;;;;119.50;33.20;;;7.30;99.90;;;;;;4426907;28;657614;-74
2022/10/28 03:01:41;;;;;;;106.43;33.17;;;7.30;99.90;;;;;;4411751;28;658263;-73
2022/10/28 03:04:28;;;;;;;120.90;29.60;;;7.30;99.90;;;;;;4423428;28;658249;-73
2022/10/28 03:07:16;;;;;;;64.70;25.73;;;7.20;99.90;;;;;;4409408;28;657979;-74
2022/10/28 03:10:03;;;;;;;70.93;23.63;;;7.20;99.90;;;;;;4417909;28;657135;-73
2022/10/28 03:12:52;;;;;;;76.20;28.75;;;7.20;99.90;;;;;;4405250;28;656621;-71
2022/10/28 03:15:39;;;;;;;61.33;26.70;;;7.30;99.90;;;;;;4420877;28;658115;-73
2022/10/28 03:18:26;;;;;;;56.87;25.27;;;7.20;99.90;;;;;;4402043;28;656588;-74
2022/10/28 03:21:13;;;;;;;59.30;26.07;;;7.30;99.90;;;;;;4424379;28;656876;-73
2022/10/28 03:24:00;;;;;;;201.33;28.43;;;7.20;99.90;;;;;;4404133;28;656987;-72
2022/10/28 03:26:47;;;;;;;51.13;22.93;;;7.20;99.90;;;;;;4426290;28;658008;-74
2022/10/28 03:29:36;;;;;;;156.47;23.73;;;7.20;99.90;;;;;;4420102;28;656748;-74
2022/10/28 03:32:23;;;;;;;51.90;20.83;;;7.20;99.90;;;;;;4392611;28;658166;-73
2022/10/28 03:35:10;;;;;;;56.03;21.67;;;7.20;99.90;;;;;;4402813;28;657295;-71
2022/10/28 03:37:57;;;;;;;47.07;20.77;;;7.20;99.90;;;;;;4423241;28;657442;-73
2022/10/28 03:40:47;;;;;;;60.20;21.03;;;7.20;99.90;;;;;;4418178;28;657413;-71
2022/10/28 03:43:34;;;;;;;46.23;19.33;;;7.10;99.90;;;;;;4416513;28;656723;-73
2022/10/28 03:46:23;;;;;;;44.43;20.30;;;7.00;99.90;;;;;;4405347;28;657454;-74
2022/10/28 03:49:10;;;;;;;77.75;23.42;;;7.10;99.90;;;;;;4404825;28;656451;-71
2022/10/28 03:51:57;;;;;;;482.10;56.47;;;7.10;99.90;;;;;;4427426;28;656787;-73
2022/10/28 03:54:45;;;;;;;652.80;88.67;;;7.10;99.90;;;;;;4421136;28;658842;-73
2022/10/28 03:57:32;;;;;;;802.53;131.53;;;7.00;99.90;;;;;;4398771;28;659183;-74
2022/10/28 04:00:19;;;;;;;698.60;146.97;;;7.00;99.90;;;;;;4420040;28;658968;-73
2022/10/28 04:03:08;;;;;;;159.30;42.07;;;7.00;99.90;;;;;;4400694;28;659786;-74
2022/10/28 04:05:55;;;;;;;60.97;20.97;;;7.00;99.90;;;;;;4404056;28;657696;-72
2022/10/28 04:08:42;;;;;;;57.30;20.83;;;7.10;99.90;;;;;;4423690;28;657152;-74
2022/10/28 04:11:29;;;;;;;49.57;19.73;;;7.10;99.90;;;;;;4416902;28;656743;-74
2022/10/28 04:14:16;;;;;;;55.80;17.13;;;7.10;99.90;;;;;;4400850;28;657265;-73
2022/10/28 04:17:04;;;;;;;98.90;31.43;;;7.00;99.90;;;;;;4421995;28;656717;-74
2022/10/28 04:19:52;;;;;;;113.90;42.47;;;7.00;99.90;;;;;;4392631;28;656509;-73
2022/10/28 04:22:39;;;;;;;220.73;83.70;;;7.00;99.90;;;;;;4418504;28;657403;-74
2022/10/28 04:25:27;;;;;;;227.37;51.43;;;7.00;99.90;;;;;;4402174;28;659148;-73
2022/10/28 04:28:14;;;;;;;132.77;56.27;;;6.90;99.90;;;;;;4419938;28;657363;-72
2022/10/28 04:31:02;;;;;;;101.85;44.25;;;6.90;99.90;;;;;;4403159;28;657593;-74
2022/10/28 04:33:49;;;;;;;118.97;50.43;;;6.90;99.90;;;;;;4421956;28;656943;-74
2022/10/28 04:36:37;;;;;;;126.33;52.83;;;6.90;99.90;;;;;;4401108;28;657492;-74
2022/10/28 04:39:24;;;;;;;147.70;53.57;;;6.90;99.90;;;;;;4418424;28;657585;-71
2022/10/28 04:42:12;;;;;;;108.17;42.73;;;7.00;99.90;;;;;;4395214;28;658311;-74
2022/10/28 04:44:59;;;;;;;60.97;27.47;;;7.00;99.90;;;;;;4411957;28;657257;-74
2022/10/28 04:47:46;;;;;;;75.73;28.40;;;7.10;99.90;;;;;;4399904;28;657168;-74
2022/10/28 04:50:33;;;;;;;138.23;46.87;;;7.10;99.90;;;;;;4423864;28;657620;-74
2022/10/28 04:53:22;;;;;;;336.60;131.30;;;7.00;99.90;;;;;;4405568;28;657461;-72
2022/10/28 04:56:09;;;;;;;149.60;57.83;;;7.00;99.90;;;;;;4420944;28;659348;-72
2022/10/28 04:58:56;;;;;;;426.27;55.40;;;6.90;99.90;;;;;;4401452;28;657642;-73
2022/10/28 05:01:43;;;;;;;97.30;44.80;;;6.90;99.90;;;;;;4422329;28;658600;-73
2022/10/28 05:04:31;;;;;;;56.03;28.80;;;6.90;99.90;;;;;;4408456;28;656958;-73
2022/10/28 05:07:18;;;;;;;37.97;22.53;;;6.90;99.90;;;;;;4427498;28;656428;-73
2022/10/28 05:10:08;;;;;;;379.30;28.43;;;6.90;99.90;;;;;;4415107;28;656975;-72
2022/10/28 05:12:55;;;;;;;51.47;26.10;;;6.80;99.90;;;;;;4416976;28;658718;-71
2022/10/28 05:15:42;;;;;;;44.77;25.33;;;6.80;99.90;;;;;;4429500;28;657882;-72
2022/10/28 05:18:29;;;;;;;44.10;21.50;;;6.80;99.90;;;;;;4429919;28;656252;-72
2022/10/28 05:21:16;;;;;;;41.47;23.93;;;6.90;99.90;;;;;;4407295;28;657397;-72
2022/10/28 05:24:04;;;;;;;127.57;28.90;;;7.00;99.90;;;;;;4423842;28;656506;-72
2022/10/28 05:26:53;;;;;;;42.40;19.63;;;7.00;99.90;;;;;;4406669;28;657386;-72
2022/10/28 05:29:40;;;;;;;44.07;21.70;;;7.00;99.90;;;;;;4410642;28;656763;-71
2022/10/28 05:32:27;;;;;;;33.77;17.90;;;7.00;99.90;;;;;;4432951;28;656421;-71
2022/10/28 05:35:14;;;;;;;36.83;17.20;;;7.00;99.90;;;;;;4428195;28;656679;-70
2022/10/28 05:38:02;;;;;;;41.90;23.60;;;7.10;99.90;;;;;;4410523;28;657673;-72
2022/10/28 05:40:49;;;;;;;38.23;21.10;;;7.10;99.90;;;;;;4428976;28;657207;-72
2022/10/28 05:43:37;;;;;;;216.17;27.60;;;7.20;99.90;;;;;;4411446;28;656638;-72
2022/10/28 05:46:25;;;;;;;49.33;27.40;;;7.10;99.90;;;;;;4430291;28;658434;-71
2022/10/28 05:49:12;;;;;;;59.53;34.00;;;7.00;99.90;;;;;;4431381;28;656360;-72
2022/10/28 05:51:59;;;;;;;46.47;26.73;;;7.10;99.90;;;;;;4432452;28;657535;-73
2022/10/28 05:54:47;;;;;;;49.37;29.37;;;7.20;99.90;;;;;;4407415;28;657176;-72
2022/10/28 05:57:34;;;;;;;48.70;25.87;;;7.30;99.90;;;;;;4433207;28;656754;-73
2022/10/28 06:00:24;;;;;;;46.20;23.67;;;7.30;99.90;;;;;;4411250;28;656595;-73
2022/10/28 06:03:11;;;;;;;84.03;49.53;;;7.30;99.90;;;;;;4407634;28;656479;-73
2022/10/28 06:05:58;;;;;;;88.40;35.20;;;7.40;99.90;;;;;;4438386;28;656511;-73
2022/10/28 06:08:46;;;;;;;95.50;54.10;;;7.40;99.90;;;;;;4412964;28;656595;-73
2022/10/28 06:11:34;;;;;;;61.07;34.03;;;7.50;99.90;;;;;;4430449;28;657112;-72
2022/10/28 06:14:21;;;;;;;38.77;19.20;;;7.60;99.90;;;;;;4410523;28;656617;-72
2022/10/28 06:17:09;;;;;;;56.47;30.83;;;7.80;99.90;;;;;;4426170;28;657972;-73
2022/10/28 06:19:57;;;;;;;38.70;21.83;;;7.90;99.90;;;;;;4409562;28;657446;-73
2022/10/28 06:22:48;;;;;;;38.23;19.37;;;8.10;99.90;;;;;;4425025;28;657178;-73
2022/10/28 06:25:35;;;;;;;34.97;20.83;;;8.20;99.90;;;;;;4403060;28;656646;-71
2022/10/28 06:28:22;;;;;;;43.27;22.33;;;8.40;99.90;;;;;;4430187;28;657165;-72
2022/10/28 06:31:09;;;;;;;34.23;18.57;;;8.40;99.90;;;;;;4422271;28;656130;-71
2022/10/28 06:33:58;;;;;;;41.60;19.90;;;8.50;99.90;;;;;;4405420;28;657170;-73
2022/10/28 06:36:45;;;;;;;269.27;73.32;;;8.60;99.90;;;;;;4408305;28;656685;-70
2022/10/28 06:39:33;;;;;;;243.73;69.13;;;8.60;99.90;;;;;;4420693;28;659227;-73
2022/10/28 06:42:20;;;;;;;181.30;55.77;;;8.80;99.90;;;;;;4412102;28;657713;-72
2022/10/28 06:45:08;;;;;;;210.70;68.63;;;8.80;99.90;;;;;;4411728;28;658225;-74
2022/10/28 06:47:56;;;;;;;220.93;71.83;;;8.80;99.90;;;;;;4397346;28;657612;-72
2022/10/28 06:50:45;;;;;;;115.37;43.27;;;9.00;99.90;;;;;;4422617;28;658636;-72
2022/10/28 06:53:32;;;;;;;85.03;35.40;;;9.10;99.90;;;;;;4397829;28;658648;-73
2022/10/28 06:56:19;;;;;;;147.97;46.83;;;9.20;99.90;;;;;;4422825;28;656223;-73
2022/10/28 06:59:06;;;;;;;140.87;48.00;;;9.50;99.90;;;;;;4398119;28;657576;-72
2022/10/28 07:01:53;;;;;;;122.63;47.57;;;9.60;99.90;;;;;;4422510;28;658342;-73
2022/10/28 07:04:41;;;;;;;110.63;41.97;;;9.80;99.90;;;;;;4399033;28;658655;-73
2022/10/28 07:07:29;;;;;;;76.07;34.73;;;10.00;99.90;;;;;;4422762;28;658189;-72
2022/10/28 07:10:17;;;;;;;42.03;19.80;;;10.10;99.90;;;;;;4399408;28;657643;-73
2022/10/28 07:13:04;;;;;;;37.00;19.33;;;10.40;99.90;;;;;;4420356;28;656947;-73
2022/10/28 07:15:52;;;;;;;35.87;20.00;;;10.60;99.90;;;;;;4399871;28;657520;-71
2022/10/28 07:18:39;;;;;;;44.43;23.17;;;10.80;99.90;;;;;;4422014;28;657273;-72
2022/10/28 07:21:27;;;;;;;50.13;25.02;;;11.00;99.90;;;;;;4403281;28;657635;-72
2022/10/28 07:24:15;;;;;;;54.30;26.63;;;11.10;99.90;;;;;;4422935;28;657382;-73
2022/10/28 07:27:03;;;;;;;44.95;26.02;;;11.10;99.90;;;;;;4394017;28;658605;-73
2022/10/28 07:29:50;;;;;;;51.67;27.17;;;11.20;99.90;;;;;;4412164;28;658243;-71
2022/10/28 07:32:37;;;;;;;53.77;29.67;;;11.20;99.90;;;;;;4424464;28;658365;-73
2022/10/28 07:35:24;;;;;;;59.17;32.67;;;11.30;99.90;;;;;;4421061;28;657704;-73
2022/10/28 07:38:12;;;;;;;61.40;34.03;;;11.40;99.90;;;;;;4400545;28;657627;-73
2022/10/28 07:41:03;;;;;;;66.07;37.27;;;11.50;99.90;;;;;;4409174;28;657628;-73
2022/10/28 07:43:51;;;;;;;71.07;43.87;;;11.70;99.90;;;;;;4374771;28;657204;-73
2022/10/28 07:46:38;;;;;;;52.33;30.90;;;11.80;99.90;;;;;;4424710;28;658468;-73
2022/10/28 07:49:25;;;;;;;58.27;32.40;;;12.00;99.90;;;;;;4404096;28;657591;-71
2022/10/28 07:52:12;;;;;;;50.57;29.57;;;12.10;99.90;;;;;;4431990;28;658707;-73
2022/10/28 07:54:59;;;;;;;53.10;30.67;;;12.40;99.90;;;;;;4417846;28;657325;-73
2022/10/28 07:57:48;;;;;;;47.50;28.00;;;12.60;99.90;;;;;;4398637;28;658160;-72
2022/10/28 08:00:35;;;;;;;40.57;25.30;;;12.70;99.90;;;;;;4396492;28;657470;-72
2022/10/28 08:03:23;;;;;;;41.67;24.77;;;13.00;99.90;;;;;;4426056;28;658377;-73
2022/10/28 08:06:12;;;;;;;42.27;23.77;;;13.30;99.90;;;;;;4400418;28;658067;-73
2022/10/28 08:08:59;;;;;;;44.37;23.03;;;13.30;99.90;;;;;;4418734;28;658248;-73
2022/10/28 08:11:46;;;;;;;35.30;20.90;;;13.50;99.90;;;;;;4391234;28;657916;-73
2022/10/28 08:14:34;;;;;;;36.87;22.20;;;13.40;99.90;;;;;;4419015;28;658683;-73
2022/10/28 08:17:22;;;;;;;33.50;20.03;;;13.60;99.90;;;;;;4397831;28;658653;-71
2022/10/28 08:20:09;;;;;;;28.13;17.03;;;14.00;99.90;;;;;;4421684;28;657271;-74
2022/10/28 08:22:58;;;;;;;24.67;12.87;;;14.20;99.90;;;;;;4400894;28;657631;-70
2022/10/28 08:25:49;;;;;;;28.33;17.37;;;14.10;99.90;;;;;;4400390;28;657370;-71
2022/10/28 08:28:36;;;;;;;33.00;17.80;;;14.10;99.90;;;;;;4387617;28;657271;-73
2022/10/28 08:31:25;;;;;;;30.13;15.73;;;13.80;99.90;;;;;;4424548;28;658301;-72
2022/10/28 08:34:12;;;;;;;28.83;15.37;;;14.20;99.90;;;;;;4397126;28;659162;-72
2022/10/28 08:36:59;;;;;;;29.97;16.80;;;14.30;99.90;;;;;;4416982;28;658146;-72
2022/10/28 08:39:46;;;;;;;27.97;16.00;;;14.40;99.90;;;;;;4397438;28;657436;-72
2022/10/28 08:42:37;;;;;;;27.27;17.05;;;14.40;99.90;;;;;;4410225;28;659259;-73
2022/10/28 08:45:38;;;;;;;29.40;14.83;;;14.40;99.90;;;;;;4396964;28;658010;-72
2022/10/28 08:48:30;;;;;;;29.07;17.07;;;14.30;99.90;;;;;;4386635;28;657527;-70
2022/10/28 08:51:18;;;;;;;28.50;16.13;;;14.50;99.90;;;;;;4405069;28;660147;-73
2022/10/28 08:54:06;;;;;;;25.80;18.83;;;14.70;99.90;;;;;;4402092;28;657789;-71
2022/10/28 08:56:55;;;;;;;34.23;17.23;;;14.80;99.90;;;;;;4422300;28;657657;-73
2022/10/28 08:59:42;;;;;;;30.73;17.10;;;15.10;99.90;;;;;;4402301;28;658734;-73
2022/10/28 09:02:31;;;;;;;28.57;16.30;;;15.50;99.90;;;;;;4414438;28;657107;-71
2022/10/28 09:05:22;;;;;;;19.27;13.90;;;16.30;99.90;;;;;;4401616;28;658047;-74
2022/10/28 09:08:09;;;;;;;18.70;12.63;;;17.10;99.90;;;;;;4406410;28;657429;-73
2022/10/28 09:11:21;;;;;;;20.43;11.20;;;16.30;99.90;;;;;;4405511;28;658034;-74
2022/10/28 09:14:15;;;;;;;21.67;11.93;;;16.40;99.90;;;;;;4383139;28;657324;-74
2022/10/28 09:17:09;;;;;;;17.17;10.40;;;16.30;99.90;;;;;;4385228;28;658229;-72
2022/10/28 09:19:58;;;;;;;11.82;8.20;;;17.20;99.90;;;;;;4404375;28;657474;-73
2022/10/28 09:22:52;;;;;;;11.10;7.33;;;17.20;99.90;;;;;;4410848;28;656457;-72
2022/10/28 09:25:47;;;;;;;13.77;7.87;;;17.90;99.90;;;;;;4411582;28;656768;-73
2022/10/28 09:28:45;;;;;;;12.73;7.53;;;17.40;99.90;;;;;;4406202;28;656892;-73
2022/10/28 09:31:34;;;;;;;14.60;7.97;;;17.30;99.90;;;;;;4385190;28;656870;-73
2022/10/28 09:34:26;;;;;;;14.17;8.50;;;17.10;99.90;;;;;;4406718;28;656754;-73
2022/10/28 09:37:15;;;;;;;13.03;7.80;;;17.20;99.90;;;;;;4401697;28;656802;-72
2022/10/28 09:40:07;;;;;;;15.93;8.10;;;17.90;99.90;;;;;;4412261;28;657272;-72
2022/10/28 09:42:58;;;;;;;17.17;7.80;;;17.80;99.90;;;;;;4404081;28;657653;-72
2022/10/28 09:45:46;;;;;;;17.20;7.67;;;17.40;99.90;;;;;;4393142;28;657627;-71
2022/10/28 09:48:34;;;;;;;15.30;9.03;;;18.00;99.90;;;;;;4438528;28;657016;-73
2022/10/28 09:51:28;;;;;;;14.13;9.50;;;18.30;99.90;;;;;;4407941;28;656546;-72
2022/10/28 09:54:16;;;;;;;12.10;8.17;;;18.50;99.90;;;;;;4379984;28;656751;-72
2022/10/28 09:57:05;;;;;;;14.33;8.13;;;18.20;99.90;;;;;;4426042;28;656291;-73
2022/10/28 09:59:52;;;;;;;14.40;7.93;;;19.10;99.90;;;;;;4414375;28;657751;-73
2022/10/28 10:02:41;;;;;;;14.47;6.83;;;19.00;99.90;;;;;;4423266;28;657509;-72
2022/10/28 10:05:29;;;;;;;14.15;7.50;;;19.50;99.90;;;;;;4405414;28;657667;-72
2022/10/28 10:08:18;;;;;;;16.37;8.17;;;18.90;99.90;;;;;;4406095;28;657365;-73
2022/10/28 10:11:07;;;;;;;17.20;6.97;;;18.20;99.90;;;;;;4417469;28;657105;-71
2022/10/28 10:13:55;;;;;;;13.87;8.10;;;18.90;99.90;;;;;;4424229;28;657142;-71
2022/10/28 10:16:43;;;;;;;16.77;7.67;;;18.70;99.90;;;;;;4404082;28;657289;-72
2022/10/28 10:19:55;;;;;;;13.50;7.30;;;19.80;99.90;;;;;;4401641;28;656577;-71
2022/10/28 10:22:43;;;;;;;16.20;7.90;;;20.00;99.90;;;;;;4383204;28;657339;-72
2022/10/28 10:25:30;;;;;;;13.30;7.27;;;19.30;99.90;;;;;;4412867;28;656536;-71
2022/10/28 10:28:17;;;;;;;10.93;7.03;;;19.20;99.90;;;;;;4427677;28;657324;-72
2022/10/28 10:31:07;;;;;;;15.90;7.20;;;19.30;99.90;;;;;;4430879;28;656571;-72
2022/10/28 10:33:55;;;;;;;14.03;7.53;;;19.10;99.90;;;;;;4402925;28;657038;-72
2022/10/28 10:36:48;;;;;;;15.10;7.90;;;18.50;99.90;;;;;;4409007;28;657149;-72
2022/10/28 10:39:37;;;;;;;13.50;8.13;;;19.30;99.90;;;;;;4384998;28;656486;-72
2022/10/28 10:42:26;;;;;;;17.47;7.47;;;19.70;99.90;;;;;;4420606;28;656864;-72
2022/10/28 10:45:23;;;;;;;15.67;6.77;;;19.30;99.90;;;;;;4402075;28;656526;-72
2022/10/28 10:48:13;;;;;;;12.30;7.07;;;19.10;99.90;;;;;;4405785;28;656728;-71
2022/10/28 10:51:05;;;;;;;11.67;6.60;;;20.10;99.90;;;;;;4404541;28;656966;-71
2022/10/28 10:53:53;;;;;;;17.33;7.50;;;20.60;99.90;;;;;;4398892;28;657571;-72
2022/10/28 10:56:40;;;;;;;14.25;7.95;;;20.80;99.90;;;;;;4405037;28;656124;-71
2022/10/28 10:59:28;;;;;;;11.40;6.43;;;20.10;99.70;;;;;;4427672;28;657819;-71
2022/10/28 11:02:21;;;;;;;14.17;7.80;;;20.60;99.90;;;;;;4402010;28;656836;-72
2022/10/28 11:05:10;;;;;;;14.73;8.07;;;21.50;99.90;;;;;;4395546;28;657131;-72
2022/10/28 11:07:57;;;;;;;13.83;8.30;;;21.50;98.20;;;;;;4404848;28;656375;-73
2022/10/28 11:10:44;;;;;;;14.27;7.70;;;21.30;97.00;;;;;;4429035;28;656944;-72
2022/10/28 11:13:31;;;;;;;13.10;7.50;;;20.80;96.60;;;;;;4405908;28;656593;-71
2022/10/28 11:16:20;;;;;;;13.90;7.63;;;20.10;98.40;;;;;;4429638;28;656374;-72
2022/10/28 11:19:15;;;;;;;17.80;6.80;;;20.10;98.70;;;;;;4390192;28;657548;-71
2022/10/28 11:22:15;;;;;;;12.93;6.80;;;20.40;99.10;;;;;;4403468;28;656874;-72
2022/10/28 11:25:18;;;;;;;16.63;6.67;;;20.10;99.90;;;;;;4406303;28;657975;-73
2022/10/28 11:28:19;;;;;;;8.47;6.03;;;21.00;97.40;;;;;;4401439;28;657269;-71
2022/10/28 11:31:38;;;;;;;15.80;6.83;;;22.30;99.40;;;;;;4381712;28;655954;-71
2022/10/28 11:34:34;;;;;;;14.90;7.43;;;23.10;92.40;;;;;;4384358;28;657029;-71
2022/10/28 11:37:26;;;;;;;10.33;6.50;;;22.40;91.20;;;;;;4401188;28;656388;-71
2022/10/28 11:40:21;;;;;;;12.37;6.27;;;22.20;90.60;;;;;;4395847;28;657318;-73
2022/10/28 11:43:17;;;;;;;11.40;6.43;;;20.80;92.00;;;;;;4398531;28;656755;-72
2022/10/28 11:46:05;;;;;;;15.03;7.23;;;20.40;94.60;;;;;;4395178;28;656330;-72
2022/10/28 11:49:04;;;;;;;9.67;6.80;;;20.20;97.40;;;;;;4402416;28;657646;-72
2022/10/28 11:51:53;;;;;;;16.67;6.97;;;20.70;98.10;;;;;;4400628;28;655974;-71
2022/10/28 11:54:50;;;;;;;13.00;5.30;;;21.10;98.60;;;;;;4402188;28;657000;-72
2022/10/28 11:57:42;;;;;;;12.30;5.03;;;21.10;95.10;;;;;;4371224;28;657287;-72
2022/10/28 12:00:40;;;;;;;8.37;4.30;;;22.00;95.80;;;;;;4393592;28;657031;-71
2022/10/28 12:03:40;;;;;;;10.30;4.50;;;21.50;92.30;;;;;;4377411;28;657298;-72
2022/10/28 12:06:34;;;;;;;5.70;3.73;;;22.50;92.60;;;;;;4377838;28;656802;-71
2022/10/28 12:09:25;;;;;;;7.83;3.47;;;23.20;85.50;;;;;;4401762;28;655113;-72
2022/10/28 12:12:18;;;;;;;9.70;4.50;;;22.70;84.10;;;;;;4408128;28;657559;-71
2022/10/28 12:15:13;;;;;;;8.77;3.90;;;21.50;86.60;;;;;;4385849;28;655428;-71
2022/10/28 12:18:03;;;;;;;6.60;3.83;;;21.30;90.60;;;;;;4380977;28;655365;-72
2022/10/28 12:20:52;;;;;;;6.90;3.93;;;21.00;90.00;;;;;;4407198;28;655657;-71
2022/10/28 12:23:40;;;;;;;11.10;4.10;;;20.40;91.90;;;;;;4421051;28;655781;-71
2022/10/28 12:26:34;;;;;;;8.23;3.70;;;20.60;92.80;;;;;;4431389;28;658153;-71
2022/10/28 12:29:24;;;;;;;9.17;3.33;;;20.20;93.50;;;;;;4406466;28;656383;-71
2022/10/28 12:32:12;;;;;;;6.37;3.20;;;20.30;93.90;;;;;;4398976;28;656103;-71
2022/10/28 12:35:01;;;;;;;9.73;3.93;;;20.00;94.20;;;;;;4430267;28;655370;-71
2022/10/28 12:37:49;;;;;;;7.87;3.80;;;19.80;96.30;;;;;;4407352;28;656498;-70
2022/10/28 12:40:39;;;;;;;11.03;5.13;;;19.90;98.00;;;;;;4410365;28;656167;-70
2022/10/28 12:43:29;;;;;;;16.47;5.53;;;19.50;97.20;;;;;;4400140;28;656528;-70
2022/10/28 12:46:22;;;;;;;7.57;4.30;;;20.00;97.60;;;;;;4396825;28;657175;-70
2022/10/28 12:49:13;;;;;;;9.50;5.40;;;19.90;96.80;;;;;;4397553;28;655203;-71
2022/10/28 12:52:02;;;;;;;12.00;4.77;;;20.00;99.50;;;;;;4382484;28;655693;-72
2022/10/28 12:54:54;;;;;;;9.67;4.33;;;19.80;98.60;;;;;;4422484;28;656322;-71
2022/10/28 12:57:42;;;;;;;8.97;3.63;;;19.80;99.70;;;;;;4400866;28;655870;-72
2022/10/28 13:00:30;;;;;;;9.53;3.80;;;19.60;99.90;;;;;;4416895;28;656718;-71
2022/10/28 13:03:19;;;;;;;7.33;3.90;;;19.40;99.90;;;;;;4402264;28;656284;-71
2022/10/28 13:06:16;;;;;;;7.50;3.67;;;19.40;99.90;;;;;;4405363;28;655916;-71
2022/10/28 13:09:37;;;;;;;8.03;3.83;;;19.40;99.90;;;;;;4399912;28;655385;-71
2022/10/28 13:13:00;;;;;;;6.03;3.87;;;19.30;99.90;;;;;;4401267;28;655887;-70
2022/10/28 13:15:56;;;;;;;8.57;3.90;;;19.80;99.90;;;;;;4378226;28;656883;-71
2022/10/28 13:19:25;;;;;;;7.20;3.50;;;19.90;99.90;;;;;;4402001;28;656384;-70
2022/10/28 13:22:51;;;;;;;7.60;4.00;;;20.00;99.90;;;;;;4380194;28;655304;-71
2022/10/28 13:25:48;;;;;;;7.27;3.63;;;19.80;99.90;;;;;;4404267;28;655843;-71
2022/10/28 13:28:36;;;;;;;7.00;3.50;;;19.80;99.90;;;;;;4406742;28;655858;-71
2022/10/28 13:31:23;;;;;;;9.63;3.30;;;19.80;99.50;;;;;;4424017;28;655219;-71
2022/10/28 13:34:13;;;;;;;7.70;3.63;;;20.00;99.80;;;;;;4401570;28;655459;-70
2022/10/28 13:37:02;;;;;;;5.93;3.33;;;20.50;99.80;;;;;;4417873;28;655783;-71
2022/10/28 13:39:49;;;;;;;8.97;3.37;;;21.40;95.40;;;;;;4424111;28;656122;-71
2022/10/28 13:42:54;;;;;;;8.50;3.70;;;22.70;93.00;;;;;;4405154;28;655845;-70
2022/10/28 13:45:47;;;;;;;7.80;3.40;;;24.20;82.00;;;;;;4369287;28;656148;-72
2022/10/28 13:48:47;;;;;;;8.87;3.23;;;24.70;78.00;;;;;;4401804;28;655818;-71
2022/10/28 13:51:46;;;;;;;8.30;3.73;;;23.30;78.10;;;;;;4401690;28;655795;-71
2022/10/28 13:54:33;;;;;;;6.60;3.27;;;22.70;79.20;;;;;;4400132;28;656153;-71
2022/10/28 13:57:23;;;;;;;5.97;3.67;;;21.50;86.00;;;;;;4407594;28;655412;-70
2022/10/28 14:00:36;;;;;;;11.37;3.77;;;21.20;90.50;;;;;;4403462;28;655395;-71
2022/10/28 14:03:24;;;;;;;7.97;3.60;;;20.30;91.90;;;;;;4399555;28;657023;-70
2022/10/28 14:06:11;;;;;;;8.70;4.37;;;21.10;93.10;;;;;;4402537;28;655582;-70
2022/10/28 14:08:59;;;;;;;7.50;3.27;;;21.30;91.80;;;;;;4427500;28;656056;-70
2022/10/28 14:11:46;;;;;;;8.33;3.63;;;21.50;91.60;;;;;;4410912;28;655882;-71
2022/10/28 14:14:34;;;;;;;6.63;3.77;;;21.80;90.40;;;;;;4424842;28;655496;-71
2022/10/28 14:17:21;;;;;;;7.87;3.60;;;21.50;90.50;;;;;;4400901;28;655455;-71
2022/10/28 14:20:37;;;;;;;7.40;3.63;;;21.60;90.80;;;;;;4430204;28;656015;-71
2022/10/28 14:24:02;;;;;;;6.50;3.87;;;21.80;90.90;;;;;;4419928;28;656558;-71